Terminal Aerodrome Forecast
Issued by NWS

Current Version | Previous Version | Graphics & Text | Print | Product List | Glossary On
Versions: 1 2 3 4 5 6 7 8 9 10 11 12 13 14 15 16 17 18 19 20 21 22 23 24 25 26 27 28 29 30 31 32 33 34 35
000
FTUS41 KRNK 280538
TAFLWB
TAF
KLWB 280538Z 2806/2906 32009G19KT P6SM -SN OVC050
      TEMPO 2806/2808 4SM -SN OVC020
     FM280900 32010G18KT P6SM BKN025
     FM281400 31010G20KT P6SM SCT035
     FM290000 31005KT P6SM SKC=

USA.gov is the U.S. government's official web portal to all federal, state and local government web resources and services.